createdAt,value
2023-04-13T00:01:37.049Z,95359.72
2023-04-13T00:04:10.059Z,95357.03
2023-04-13T00:06:47.020Z,95355.94
2023-04-13T00:09:20.065Z,95367.03
2023-04-13T00:11:52.785Z,95364.03
2023-04-13T00:14:27.640Z,95370.91
2023-04-13T00:17:00.446Z,95367.81
2023-04-13T00:19:33.465Z,95369.78
2023-04-13T00:22:09.710Z,95362.56
2023-04-13T00:24:44.144Z,95354.13
2023-04-13T00:27:16.853Z,95354.88
2023-04-13T00:29:50.091Z,95355.31
2023-04-13T00:32:22.753Z,95351.22
2023-04-13T00:34:55.413Z,95348.19
2023-04-13T00:37:30.445Z,95352.09
2023-04-13T00:40:03.681Z,95352.94
2023-04-13T00:42:36.666Z,95343.47
2023-04-13T00:45:09.742Z,95358.00
2023-04-13T00:47:43.372Z,95357.31
2023-04-13T00:50:17.780Z,95348.31
2023-04-13T00:52:51.884Z,95345.28
2023-04-13T00:55:25.176Z,95347.25
2023-04-13T00:57:59.428Z,95351.47
2023-04-13T01:00:32.315Z,95353.81
2023-04-13T01:03:05.180Z,95352.69
2023-04-13T01:05:41.324Z,95342.44
2023-04-13T01:08:19.419Z,95341.25
2023-04-13T01:10:55.316Z,95342.34
2023-04-13T01:13:32.085Z,95335.75
2023-04-13T01:16:07.687Z,95336.75
2023-04-13T01:18:41.776Z,95347.69
2023-04-13T01:21:16.210Z,95344.81
2023-04-13T01:23:57.777Z,95355.44
2023-04-13T01:26:37.158Z,95361.38
2023-04-13T01:29:11.301Z,95353.94
2023-04-13T01:31:44.328Z,95351.19
2023-04-13T01:34:17.112Z,95344.16
2023-04-13T01:36:49.772Z,95337.66
2023-04-13T01:39:25.515Z,95337.22
2023-04-13T01:41:58.412Z,95344.09
2023-04-13T01:44:34.870Z,95349.44
2023-04-13T01:47:16.537Z,95343.31
2023-04-13T01:49:52.510Z,95359.75
2023-04-13T01:52:27.919Z,95351.41
2023-04-13T01:55:01.716Z,95352.94
2023-04-13T01:57:36.161Z,95361.09
2023-04-13T02:00:14.466Z,95361.09
2023-04-13T02:02:47.381Z,95367.97
2023-04-13T02:05:20.197Z,95362.63
2023-04-13T02:07:52.885Z,95355.81
2023-04-13T02:10:26.467Z,95364.28
2023-04-13T02:12:59.413Z,95363.94
2023-04-13T02:15:35.546Z,95368.16
2023-04-13T02:18:08.556Z,95368.59
2023-04-13T02:20:44.753Z,95364.38
2023-04-13T02:23:18.014Z,95368.59
2023-04-13T02:25:50.749Z,95368.59
2023-04-13T02:28:24.004Z,95372.81
2023-04-13T02:30:59.840Z,95368.59
2023-04-13T02:33:33.058Z,95366.69
2023-04-13T02:36:06.774Z,95375.47
2023-04-13T02:38:39.507Z,95365.94
2023-04-13T02:41:12.570Z,95376.22
2023-04-13T02:43:45.433Z,95375.91
2023-04-13T02:46:19.514Z,95371.66
2023-04-13T02:48:52.543Z,95372.81
2023-04-13T02:51:25.209Z,95377.78
2023-04-13T02:53:58.834Z,95370.56
2023-04-13T02:56:31.860Z,95379.00
2023-04-13T02:59:06.475Z,95371.44
2023-04-13T03:01:42.256Z,95365.00
2023-04-13T03:04:15.142Z,95373.00
2023-04-13T03:06:49.038Z,95370.66
2023-04-13T03:09:21.805Z,95368.78
2023-04-13T03:11:56.252Z,95367.66
2023-04-13T03:14:30.177Z,95368.00
2023-04-13T03:17:04.978Z,95367.22
2023-04-13T03:19:37.806Z,95370.66
2023-04-13T03:22:11.271Z,95371.44
2023-04-13T03:24:44.100Z,95374.44
2023-04-13T03:27:17.310Z,95373.22
2023-04-13T03:29:49.984Z,95372.44
2023-04-13T03:32:24.194Z,95361.38
2023-04-13T03:34:56.996Z,95371.25
2023-04-13T03:37:32.454Z,95368.16
2023-04-13T03:40:05.709Z,95374.94
2023-04-13T03:42:38.473Z,95373.81
2023-04-13T03:45:11.778Z,95373.03
2023-04-13T03:47:46.050Z,95373.81
2023-04-13T03:50:19.359Z,95374.16
2023-04-13T03:52:52.198Z,95371.50
2023-04-13T03:55:24.975Z,95379.94
2023-04-13T03:57:57.755Z,95380.72
2023-04-13T04:00:30.431Z,95378.03
2023-04-13T04:03:04.570Z,95367.81
2023-04-13T04:05:38.886Z,95371.25
2023-04-13T04:08:11.670Z,95373.94
2023-04-13T04:10:44.422Z,95375.13
2023-04-13T04:13:17.023Z,95372.44
2023-04-13T04:15:49.806Z,95375.13
2023-04-13T04:18:24.508Z,95382.34
2023-04-13T04:20:57.332Z,95374.34
2023-04-13T04:23:30.083Z,95374.72
2023-04-13T04:26:03.190Z,95391.03
2023-04-13T04:28:38.670Z,95383.38
2023-04-13T04:31:11.785Z,95382.50
2023-04-13T04:33:47.036Z,95382.88
2023-04-13T04:36:21.020Z,95384.28
2023-04-13T04:38:58.061Z,95387.63
2023-04-13T04:41:31.476Z,95391.41
2023-04-13T04:44:04.594Z,95389.44
2023-04-13T04:46:38.851Z,95404.66
2023-04-13T04:49:13.321Z,95398.88
2023-04-13T04:51:46.074Z,95398.09
2023-04-13T04:54:19.801Z,95400.00
2023-04-13T04:56:52.689Z,95396.09
2023-04-13T04:59:25.513Z,95396.47
2023-04-13T05:01:58.238Z,95398.38
2023-04-13T05:04:33.530Z,95397.91
2023-04-13T05:07:06.212Z,95397.13
2023-04-13T05:09:39.120Z,95397.81
2023-04-13T05:12:11.929Z,95402.72
2023-04-13T05:14:48.174Z,95414.13
2023-04-13T05:17:20.905Z,95417.16
2023-04-13T05:19:54.933Z,95414.84
2023-04-13T05:22:27.756Z,95418.28
2023-04-13T05:25:00.507Z,95419.06
2023-04-13T05:27:33.378Z,95417.59
2023-04-13T05:30:06.628Z,95420.69
2023-04-13T05:32:39.349Z,95421.13
2023-04-13T05:35:13.604Z,95433.03
2023-04-13T05:37:46.848Z,95436.56
2023-04-13T05:40:19.497Z,95440.88
2023-04-13T05:42:52.117Z,95439.06
2023-04-13T05:45:24.799Z,95447.66
2023-04-13T05:47:57.618Z,95450.06
2023-04-13T05:50:32.131Z,95444.41
2023-04-13T05:53:05.832Z,95438.03
2023-04-13T05:55:39.129Z,95442.03
2023-04-13T05:58:12.161Z,95442.44
2023-04-13T06:00:44.946Z,95445.66
2023-04-13T06:03:20.609Z,95438.06
2023-04-13T06:05:54.847Z,95436.72
2023-04-13T06:08:32.742Z,95438.00
2023-04-13T06:11:06.552Z,95439.66
2023-04-13T06:13:41.236Z,95442.06
2023-04-13T06:16:13.976Z,95441.47
2023-04-13T06:18:46.975Z,95451.97
2023-04-13T06:21:21.534Z,95445.25
2023-04-13T06:23:54.415Z,95438.91
2023-04-13T06:26:28.353Z,95447.41
2023-04-13T06:29:02.660Z,95439.16
2023-04-13T06:31:35.499Z,95432.34
2023-04-13T06:34:08.561Z,95430.88
2023-04-13T06:36:43.033Z,95433.63
2023-04-13T06:39:15.893Z,95426.81
2023-04-13T06:41:49.018Z,95422.69
2023-04-13T06:44:21.710Z,95419.31
2023-04-13T06:46:54.541Z,95422.78
2023-04-13T06:49:28.156Z,95421.66
2023-04-13T06:52:02.343Z,95423.19
2023-04-13T06:54:36.151Z,95426.63
2023-04-13T06:57:08.827Z,95430.00
2023-04-13T06:59:41.506Z,95429.13
2023-04-13T07:02:14.222Z,95438.63
2023-04-13T07:04:47.127Z,95437.44
2023-04-13T07:07:21.726Z,95445.34
2023-04-13T07:09:54.414Z,95431.56
2023-04-13T07:12:27.494Z,95439.56
2023-04-13T07:15:00.861Z,95442.34
2023-04-13T07:17:33.900Z,95441.66
2023-04-13T07:20:07.909Z,95442.94
2023-04-13T07:22:42.720Z,95441.19
2023-04-13T07:25:15.857Z,95438.78
2023-04-13T07:27:48.503Z,95432.91
2023-04-13T07:30:21.523Z,95446.13
2023-04-13T07:32:54.272Z,95441.03
2023-04-13T07:35:27.139Z,95442.91
2023-04-13T07:38:01.438Z,95446.22
2023-04-13T07:40:35.867Z,95447.63
2023-04-13T07:43:08.515Z,95449.06
2023-04-13T07:45:41.227Z,95448.09
2023-04-13T07:48:13.916Z,95455.66
2023-04-13T07:50:46.911Z,95442.50
2023-04-13T07:53:21.107Z,95442.78
2023-04-13T07:55:53.875Z,95435.75
2023-04-13T07:58:27.289Z,95431.38
2023-04-13T08:01:00.027Z,95435.50
2023-04-13T08:03:33.057Z,95434.22
2023-04-13T08:06:07.568Z,95435.63
2023-04-13T08:08:41.878Z,95434.31
2023-04-13T08:11:14.655Z,95430.34
2023-04-13T08:13:47.478Z,95441.28
2023-04-13T08:16:20.222Z,95440.75
2023-04-13T08:18:53.102Z,95443.63
2023-04-13T08:21:26.630Z,95447.25
2023-04-13T08:24:01.425Z,95447.75
2023-04-13T08:26:34.075Z,95444.81
2023-04-13T08:29:06.688Z,95449.16
2023-04-13T08:31:40.737Z,95447.31
2023-04-13T08:34:14.202Z,95448.53
2023-04-13T08:36:47.901Z,95446.66
2023-04-13T08:39:22.191Z,95451.31
2023-04-13T08:41:55.072Z,95448.25
2023-04-13T08:44:28.460Z,95445.19
2023-04-13T08:47:01.531Z,95439.03
2023-04-13T08:49:35.219Z,95441.34
2023-04-13T08:52:09.047Z,95447.09
2023-04-13T08:54:43.225Z,95444.03
2023-04-13T08:57:16.967Z,95441.34
2023-04-13T08:59:51.720Z,95442.53
2023-04-13T09:02:26.550Z,95437.53
2023-04-13T09:05:01.007Z,95428.72
2023-04-13T09:07:36.827Z,95441.81
2023-04-13T09:10:11.839Z,95430.28
2023-04-13T09:12:44.474Z,95440.22
2023-04-13T09:15:17.085Z,95450.19
2023-04-13T09:17:50.681Z,95453.63
2023-04-13T09:20:24.512Z,95448.53
2023-04-13T09:22:57.504Z,95447.31
2023-04-13T09:25:31.708Z,95450.00
2023-04-13T09:28:08.735Z,95449.94
2023-04-13T09:30:41.479Z,95441.53
2023-04-13T09:33:15.922Z,95448.84
2023-04-13T09:35:48.657Z,95453.16
2023-04-13T09:38:31.237Z,95454.34
2023-04-13T09:41:05.321Z,95446.00
2023-04-13T09:43:38.671Z,95443.03
2023-04-13T09:46:14.999Z,95441.25
2023-04-13T09:48:48.415Z,95443.63
2023-04-13T09:51:21.109Z,95449.13
2023-04-13T09:53:54.617Z,95454.94
2023-04-13T09:56:29.031Z,95440.75
2023-04-13T09:59:01.919Z,95436.56
2023-04-13T10:01:35.594Z,95439.66
2023-04-13T10:04:09.961Z,95442.38
2023-04-13T10:06:44.892Z,95427.00
2023-04-13T10:09:17.688Z,95427.78
2023-04-13T10:11:52.525Z,95427.41
2023-04-13T10:14:27.061Z,95425.50
2023-04-13T10:17:08.430Z,95423.56
2023-04-13T10:19:43.553Z,95411.28
2023-04-13T10:22:17.279Z,95414.00
2023-04-13T10:24:50.423Z,95406.72
2023-04-13T10:27:24.645Z,95396.28
2023-04-13T10:29:57.731Z,95390.53
2023-04-13T10:32:32.184Z,95387.44
2023-04-13T10:35:10.157Z,95380.91
2023-04-13T10:37:45.622Z,95385.16
2023-04-13T10:40:18.571Z,95374.34
2023-04-13T10:42:53.342Z,95385.53
2023-04-13T10:45:28.282Z,95380.56
2023-04-13T10:48:01.109Z,95379.00
2023-04-13T10:50:34.016Z,95387.47
2023-04-13T10:53:07.843Z,95373.97
2023-04-13T10:55:40.681Z,95376.25
2023-04-13T10:58:17.337Z,95377.78
2023-04-13T11:00:50.984Z,95373.16
2023-04-13T11:03:23.702Z,95376.19
2023-04-13T11:05:57.823Z,95379.66
2023-04-13T11:08:30.655Z,95377.69
2023-04-13T11:11:03.469Z,95374.56
2023-04-13T11:13:45.109Z,95375.34
2023-04-13T11:16:17.861Z,95379.16
2023-04-13T11:18:50.529Z,95373.75
2023-04-13T11:21:23.213Z,95371.00
2023-04-13T11:24:01.877Z,95371.41
2023-04-13T11:26:35.080Z,95369.06
2023-04-13T11:29:18.410Z,95365.22
2023-04-13T11:31:51.230Z,95358.66
2023-04-13T11:34:25.794Z,95349.00
2023-04-13T11:37:02.358Z,95353.25
2023-04-13T11:39:36.269Z,95347.84
2023-04-13T11:42:09.219Z,95352.09
2023-04-13T11:44:45.687Z,95347.81
2023-04-13T11:47:19.114Z,95349.72
2023-04-13T11:49:51.938Z,95346.25
2023-04-13T11:52:24.883Z,95336.22
2023-04-13T11:55:00.667Z,95334.28
2023-04-13T11:57:41.122Z,95331.25
2023-04-13T12:00:20.170Z,95332.03
2023-04-13T12:03:01.803Z,95328.59
2023-04-13T12:05:36.046Z,95324.44
2023-04-13T12:08:09.854Z,95323.31
2023-04-13T12:10:51.823Z,95330.34
2023-04-13T12:13:52.301Z,95311.84
2023-04-13T12:19:16.628Z,95306.16
2023-04-13T12:21:55.866Z,95296.91
2023-04-13T12:24:33.052Z,95295.41
2023-04-13T12:29:41.870Z,95299.28
2023-04-13T12:32:16.159Z,95305.41
2023-04-13T12:34:49.110Z,95311.59
2023-04-13T12:37:21.732Z,95337.78
2023-04-13T12:39:54.452Z,95341.25
2023-04-13T12:42:27.069Z,95356.28
2023-04-13T12:44:59.793Z,95362.44
2023-04-13T12:47:33.830Z,95369.34
2023-04-13T12:50:08.108Z,95358.13
2023-04-13T12:52:42.573Z,95366.16
2023-04-13T12:55:15.673Z,95363.78
2023-04-13T12:57:48.284Z,95368.66
2023-04-13T13:00:21.526Z,95386.63
2023-04-13T13:03:06.472Z,95374.13
2023-04-13T13:05:45.394Z,95379.72
2023-04-13T13:08:18.041Z,95371.09
2023-04-13T13:10:50.775Z,95356.72
2023-04-13T13:13:23.422Z,95351.91
2023-04-13T13:15:56.094Z,95352.50
2023-04-13T13:18:35.426Z,95344.75
2023-04-13T13:21:20.145Z,95350.03
2023-04-13T13:23:52.798Z,95345.06
2023-04-13T13:26:30.326Z,95347.44
2023-04-13T13:29:08.217Z,95344.78
2023-04-13T13:31:41.554Z,95343.31
2023-04-13T13:34:15.677Z,95340.34
2023-04-13T13:36:48.535Z,95346.56
2023-04-13T13:39:22.448Z,95334.38
2023-04-13T13:41:55.064Z,95340.97
2023-04-13T13:44:27.804Z,95333.00
2023-04-13T13:47:01.340Z,95338.50
2023-04-13T13:49:35.384Z,95334.34
2023-04-13T13:52:08.258Z,95337.16
2023-04-13T13:54:41.360Z,95329.16
2023-04-13T13:57:14.038Z,95331.88
2023-04-13T13:59:49.174Z,95320.81
2023-04-13T14:02:22.370Z,95326.69
2023-04-13T14:04:56.620Z,95321.72
2023-04-13T14:07:29.328Z,95312.91
2023-04-13T14:10:01.993Z,95307.94
2023-04-13T14:12:34.789Z,95311.84
2023-04-13T14:15:08.018Z,95311.47
2023-04-13T14:17:41.271Z,95311.13
2023-04-13T14:20:16.002Z,95313.84
2023-04-13T14:22:48.663Z,95315.00
2023-04-13T14:25:21.974Z,95316.56
2023-04-13T14:27:54.645Z,95311.56
2023-04-13T14:30:28.303Z,95320.84
2023-04-13T14:33:01.414Z,95310.84
2023-04-13T14:35:35.665Z,95319.31
2023-04-13T14:38:09.810Z,95334.72
2023-04-13T14:40:42.456Z,95327.41
2023-04-13T14:43:16.023Z,95324.31
2023-04-13T14:45:48.660Z,95330.47
2023-04-13T14:48:21.800Z,95332.38
2023-04-13T14:50:55.963Z,95335.44
2023-04-13T14:53:28.599Z,95340.47
2023-04-13T14:56:01.393Z,95340.06
2023-04-13T14:58:34.172Z,95336.63
2023-04-13T15:01:16.237Z,95342.00
2023-04-13T15:03:49.412Z,95338.56
2023-04-13T15:06:25.329Z,95335.09
2023-04-13T15:08:58.253Z,95340.88
2023-04-13T15:11:31.262Z,95350.50
2023-04-13T15:14:03.980Z,95355.50
2023-04-13T15:16:37.210Z,95370.06
2023-04-13T15:19:09.944Z,95397.38
2023-04-13T15:21:44.034Z,95404.66
2023-04-13T15:24:16.872Z,95410.38
2023-04-13T15:26:50.267Z,95421.41
2023-04-13T15:29:25.088Z,95418.91
2023-04-13T15:31:59.397Z,95437.84
2023-04-13T15:34:32.117Z,95432.19
2023-04-13T15:37:06.201Z,95441.81
2023-04-13T15:39:38.898Z,95448.66
2023-04-13T15:42:11.875Z,95455.91
2023-04-13T15:44:44.592Z,95456.56
2023-04-13T15:47:17.411Z,95453.38
2023-04-13T15:49:50.165Z,95465.88
2023-04-13T15:52:24.354Z,95465.78
2023-04-13T15:54:57.174Z,95466.38
2023-04-13T15:57:29.921Z,95458.97
2023-04-13T16:00:02.828Z,95462.34
2023-04-13T16:02:35.899Z,95459.94
2023-04-13T16:05:09.580Z,95458.31
2023-04-13T16:07:43.691Z,95462.84
2023-04-13T16:10:16.921Z,95457.06
2023-04-13T16:12:50.274Z,95460.78
2023-04-13T16:15:24.452Z,95464.19
2023-04-13T16:17:57.329Z,95456.25
2023-04-13T16:20:30.480Z,95457.88
2023-04-13T16:23:05.850Z,95462.22
2023-04-13T16:25:39.051Z,95459.72
2023-04-13T16:28:11.858Z,95458.41
2023-04-13T16:30:44.697Z,95464.63
2023-04-13T16:33:17.597Z,95459.56
2023-04-13T16:35:50.892Z,95465.56
2023-04-13T16:38:25.005Z,95465.81
2023-04-13T16:40:57.752Z,95466.81
2023-04-13T16:43:30.460Z,95467.13
2023-04-13T16:46:03.299Z,95468.94
2023-04-13T16:48:35.952Z,95481.81
2023-04-13T16:51:08.696Z,95483.25
2023-04-13T16:53:44.270Z,95489.72
2023-04-13T16:56:17.302Z,95479.75
2023-04-13T16:58:50.461Z,95481.50
2023-04-13T17:01:25.136Z,95482.19
2023-04-13T17:03:58.069Z,95476.41
2023-04-13T17:06:31.790Z,95470.97
2023-04-13T17:09:06.132Z,95479.22
2023-04-13T17:11:38.909Z,95470.31
2023-04-13T17:14:11.665Z,95477.44
2023-04-13T17:16:44.931Z,95474.22
2023-04-13T17:19:19.035Z,95478.69
2023-04-13T17:21:52.771Z,95478.88
2023-04-13T17:24:27.021Z,95472.69
2023-04-13T17:27:00.156Z,95479.00
2023-04-13T17:29:35.943Z,95467.13
2023-04-13T17:32:08.836Z,95474.22
2023-04-13T17:34:41.787Z,95475.69
2023-04-13T17:37:14.496Z,95472.13
2023-04-13T17:39:51.243Z,95469.78
2023-04-13T17:42:24.357Z,95472.38
2023-04-13T17:44:58.538Z,95469.25
2023-04-13T17:47:31.590Z,95476.00
2023-04-13T17:50:04.935Z,95477.88
2023-04-13T17:52:37.632Z,95480.09
2023-04-13T17:55:13.585Z,95479.00
2023-04-13T17:57:46.317Z,95470.59
2023-04-13T18:00:19.358Z,95476.34
2023-04-13T18:02:52.485Z,95478.22
2023-04-13T18:05:25.852Z,95486.66
2023-04-13T18:07:58.897Z,95481.34
2023-04-13T18:10:32.960Z,95480.56
2023-04-13T18:13:05.919Z,95493.88
2023-04-13T18:15:38.654Z,95489.66
2023-04-13T18:18:11.585Z,95496.53
2023-04-13T18:20:45.285Z,95504.53
2023-04-13T18:23:17.966Z,95520.03
2023-04-13T18:25:52.650Z,95518.50
2023-04-13T18:28:25.344Z,95546.66
2023-04-13T18:30:59.855Z,95547.03
2023-04-13T18:33:32.591Z,95553.47
2023-04-13T18:36:05.595Z,95558.31
2023-04-13T18:38:38.371Z,95568.97
2023-04-13T18:41:12.731Z,95574.16
2023-04-13T18:43:45.454Z,95569.53
2023-04-13T18:46:18.267Z,95578.63
2023-04-13T18:48:51.319Z,95581.59
2023-04-13T18:51:23.975Z,95576.50
2023-04-13T18:53:57.576Z,95582.00
2023-04-13T18:56:31.923Z,95576.13
2023-04-13T18:59:05.036Z,95583.19
2023-04-13T19:01:38.239Z,95582.63
2023-04-13T19:04:11.114Z,95573.72
2023-04-13T19:06:44.015Z,95574.41
2023-04-13T19:09:16.769Z,95564.06
2023-04-13T19:11:51.511Z,95558.28
2023-04-13T19:14:24.271Z,95548.28
2023-04-13T19:16:57.479Z,95552.09
2023-04-13T19:19:30.449Z,95538.78
2023-04-13T19:22:03.268Z,95530.34
2023-04-13T19:24:36.790Z,95523.47
2023-04-13T19:27:10.981Z,95521.44
2023-04-13T19:29:44.280Z,95527.09
2023-04-13T19:32:17.345Z,95532.31
2023-04-13T19:34:50.876Z,95543.59
2023-04-13T19:37:23.581Z,95535.81
2023-04-13T19:39:56.518Z,95536.78
2023-04-13T19:42:31.408Z,95552.59
2023-04-13T19:45:04.261Z,95557.00
2023-04-13T19:47:37.436Z,95553.75
2023-04-13T19:50:11.296Z,95552.84
2023-04-13T19:52:47.163Z,95550.06
2023-04-13T19:55:20.891Z,95556.47
2023-04-13T19:57:55.491Z,95554.47
2023-04-13T20:00:29.662Z,95550.59
2023-04-13T20:03:04.493Z,95560.44
2023-04-13T20:05:38.339Z,95550.13
2023-04-13T20:08:11.602Z,95557.78
2023-04-13T20:10:44.955Z,95548.69
2023-04-13T20:13:19.732Z,95555.13
2023-04-13T20:15:52.503Z,95554.00
2023-04-13T20:18:25.679Z,95556.66
2023-04-13T20:21:00.805Z,95561.66
2023-04-13T20:23:34.570Z,95557.13
2023-04-13T20:26:07.596Z,95551.81
2023-04-13T20:28:41.952Z,95558.34
2023-04-13T20:31:16.061Z,95562.25
2023-04-13T20:33:49.363Z,95563.47
2023-04-13T20:36:24.691Z,95564.56
2023-04-13T20:38:59.454Z,95562.38
2023-04-13T20:41:33.086Z,95558.63
2023-04-13T20:44:10.035Z,95558.28
2023-04-13T20:46:49.795Z,95561.72
2023-04-13T20:49:25.934Z,95571.28
2023-04-13T20:52:02.293Z,95564.06
2023-04-13T20:54:35.429Z,95558.75
2023-04-13T20:57:09.285Z,95566.41
2023-04-13T20:59:43.770Z,95561.84
2023-04-13T21:02:16.943Z,95557.66
2023-04-13T21:04:49.892Z,95560.75
2023-04-13T21:07:23.209Z,95552.34
2023-04-13T21:09:55.866Z,95545.47
2023-04-13T21:12:30.480Z,95550.31
2023-04-13T21:15:04.870Z,95538.91
2023-04-13T21:17:38.323Z,95537.81
2023-04-13T21:20:11.780Z,95538.13
2023-04-13T21:22:44.856Z,95525.94
2023-04-13T21:25:17.626Z,95522.03
2023-04-13T21:27:50.416Z,95534.56
2023-04-13T21:30:24.533Z,95535.22
2023-04-13T21:32:57.452Z,95532.09
2023-04-13T21:35:30.255Z,95530.53
2023-04-13T21:38:05.573Z,95534.63
2023-04-13T21:40:38.412Z,95529.50
2023-04-13T21:43:11.547Z,95534.69
2023-04-13T21:45:45.790Z,95536.75
2023-04-13T21:48:18.921Z,95536.63
2023-04-13T21:50:52.163Z,95544.00
2023-04-13T21:53:25.440Z,95537.78
2023-04-13T21:55:58.131Z,95528.78
2023-04-13T21:58:38.412Z,95538.47
2023-04-13T22:01:13.725Z,95533.66
2023-04-13T22:03:47.443Z,95529.31
2023-04-13T22:06:20.694Z,95532.47
2023-04-13T22:08:54.871Z,95528.44
2023-04-13T22:11:27.669Z,95528.28
2023-04-13T22:14:01.697Z,95529.59
2023-04-13T22:16:35.871Z,95536.97
2023-04-13T22:19:08.971Z,95537.59
2023-04-13T22:21:41.905Z,95541.97
2023-04-13T22:24:16.136Z,95538.88
2023-04-13T22:26:49.317Z,95538.88
2023-04-13T22:29:22.053Z,95536.84
2023-04-13T22:31:56.202Z,95537.63
2023-04-13T22:34:29.230Z,95535.28
2023-04-13T22:37:01.918Z,95543.25
2023-04-13T22:39:34.798Z,95555.25
2023-04-13T22:42:07.709Z,95556.69
2023-04-13T22:44:40.469Z,95562.63
2023-04-13T22:47:14.637Z,95560.59
2023-04-13T22:49:47.370Z,95554.84
2023-04-13T22:52:20.258Z,95557.50
2023-04-13T22:54:53.570Z,95558.44
2023-04-13T22:57:26.463Z,95550.78
2023-04-13T22:59:59.494Z,95549.69
2023-04-13T23:02:34.192Z,95547.34
2023-04-13T23:05:07.820Z,95550.34
2023-04-13T23:07:40.771Z,95557.97
2023-04-13T23:10:15.274Z,95565.16
2023-04-13T23:12:49.196Z,95565.16
2023-04-13T23:15:21.988Z,95564.84
2023-04-13T23:17:56.329Z,95562.66
2023-04-13T23:20:29.579Z,95563.13
2023-04-13T23:23:02.629Z,95553.59
2023-04-13T23:25:35.935Z,95557.16
2023-04-13T23:28:09.042Z,95551.22
2023-04-13T23:30:42.240Z,95557.00
2023-04-13T23:33:17.001Z,95554.16
2023-04-13T23:35:52.664Z,95555.09
2023-04-13T23:38:25.542Z,95544.97
2023-04-13T23:40:58.737Z,95545.09
2023-04-13T23:43:32.755Z,95541.81
2023-04-13T23:46:05.870Z,95547.69
2023-04-13T23:48:39.962Z,95543.94
2023-04-13T23:51:12.655Z,95531.16
2023-04-13T23:53:45.394Z,95529.72
2023-04-13T23:56:18.106Z,95527.84
2023-04-13T23:58:51.033Z,95529.38
